Terminal Aerodrome Forecast
Issued by NWS

Home | Current Version | Previous Version | Graphics & Text | Print | Product List | Glossary On
Versions: 1 2 3 4 5 6 7 8 9 10 11 12 13 14 15
000
FTUS43 KIWX 252330
TAFSBN
TAF
KSBN 252330Z 2600/2624 19005KT P6SM FEW070
     FM260500 VRB04KT P6SM VCSH BKN070
     FM261200 23005KT P6SM SCT100
     FM262100 28006KT P6SM SCT100=

USA.gov is the U.S. government's official web portal to all federal, state and local government web resources and services.